Time;durP1;ratioP1;P1;durP2;ratioP2;P2;SDS_P1;SDS_P2;PMS_P1;PMS_P2;Temp;Humidity;BMP_temperature;BMP_pressure;BME280_temperature;BME280_humidity;BME280_pressure;Samples;Min_cycle;Max_cycle;Signal;HPM_P1;HPM_P2
2022/01/27 00:02:43;;;;;;;28.10;12.07;;;3.70;62.60;;;;;;5103854;28;20185;-77
2022/01/27 00:05:16;;;;;;;29.63;12.23;;;3.70;63.20;;;;;;5101140;28;20204;-78
2022/01/27 00:07:54;;;;;;;26.20;12.57;;;3.70;63.00;;;;;;5103456;28;20184;-77
2022/01/27 00:10:31;;;;;;;25.43;13.00;;;3.70;62.90;;;;;;5102942;28;20225;-77
2022/01/27 00:13:01;;;;;;;27.77;12.63;;;3.70;62.90;;;;;;5101219;28;20223;-77
2022/01/27 00:15:32;;;;;;;26.77;13.23;;;3.70;62.80;;;;;;5099592;28;20200;-78
2022/01/27 00:18:07;;;;;;;24.60;12.30;;;3.70;62.70;;;;;;5096307;28;20190;-77
2022/01/27 00:20:36;;;;;;;28.37;12.90;;;3.70;62.70;;;;;;5098836;28;20663;-78
2022/01/27 00:23:04;;;;;;;23.10;12.30;;;3.70;62.70;;;;;;5102440;28;20197;-77
2022/01/27 00:25:33;;;;;;;30.07;13.43;;;3.70;62.70;;;;;;5101118;28;20769;-77
2022/01/27 00:28:05;;;;;;;24.33;12.80;;;3.70;62.70;;;;;;5096371;28;20221;-78
2022/01/27 00:30:34;;;;;;;26.83;12.63;;;3.80;62.70;;;;;;5099742;28;20622;-77
2022/01/27 00:33:03;;;;;;;29.60;13.37;;;3.80;62.70;;;;;;5095353;28;20221;-78
2022/01/27 00:35:32;;;;;;;26.47;13.20;;;3.80;62.70;;;;;;5101576;28;20217;-78
2022/01/27 00:38:02;;;;;;;28.80;13.53;;;3.80;62.70;;;;;;5092453;28;20197;-78
2022/01/27 00:40:31;;;;;;;26.80;12.27;;;3.80;62.70;;;;;;5101841;28;20193;-77
2022/01/27 00:42:59;;;;;;;32.23;12.67;;;3.80;62.60;;;;;;5100598;28;20197;-77
2022/01/27 00:45:30;;;;;;;26.07;13.67;;;3.80;62.70;;;;;;5103368;27;20193;-77
2022/01/27 00:48:03;;;;;;;23.77;12.13;;;3.80;62.70;;;;;;5104680;28;20567;-77
2022/01/27 00:50:32;;;;;;;24.23;12.27;;;3.80;62.70;;;;;;5102432;28;20201;-77
2022/01/27 00:53:04;;;;;;;30.60;13.10;;;3.70;62.50;;;;;;5098691;28;20220;-77
2022/01/27 00:55:37;;;;;;;25.43;12.53;;;3.80;62.70;;;;;;5104951;28;20197;-77
2022/01/27 00:58:19;;;;;;;25.00;12.67;;;3.70;62.60;;;;;;5104037;28;20201;-79
2022/01/27 01:00:55;;;;;;;25.30;12.23;;;3.80;62.70;;;;;;5098586;27;20577;-77
2022/01/27 01:03:29;;;;;;;24.10;11.50;;;3.70;62.60;;;;;;5104108;28;20202;-77
2022/01/27 01:06:15;;;;;;;27.60;12.77;;;3.70;62.90;;;;;;5105716;28;20993;-77
2022/01/27 01:14:40;;;;;;;25.10;12.00;;;3.80;63.00;;;;;;5068895;28;20215;-76
2022/01/27 01:17:25;;;;;;;22.40;11.03;;;3.80;63.00;;;;;;5080861;28;20202;-77
2022/01/27 01:20:07;;;;;;;22.00;12.03;;;3.90;63.40;;;;;;5083677;28;20182;-76
2022/01/27 01:31:09;;;;;;;25.87;12.43;;;4.00;63.80;;;;;;5081062;28;20688;-76
2022/01/27 01:33:39;;;;;;;20.93;11.97;;;4.00;63.80;;;;;;5082671;28;20278;-77
2022/01/27 01:36:15;;;;;;;24.80;12.30;;;4.00;63.80;;;;;;5083629;28;20728;-76
2022/01/27 01:38:45;;;;;;;22.53;12.20;;;4.00;63.70;;;;;;5080201;28;20190;-76
2022/01/27 01:41:14;;;;;;;26.00;11.57;;;4.00;63.80;;;;;;5090368;28;20180;-77
2022/01/27 01:43:43;;;;;;;27.07;11.80;;;4.00;63.70;;;;;;5080734;28;20276;-76
2022/01/27 01:46:12;;;;;;;24.03;11.27;;;4.00;63.70;;;;;;5076924;28;20231;-76
2022/01/27 01:48:40;;;;;;;23.70;10.63;;;4.00;63.70;;;;;;5090362;28;20201;-76
2022/01/27 01:51:08;;;;;;;23.73;11.77;;;4.00;63.70;;;;;;5096904;28;20837;-76
2022/01/27 01:53:37;;;;;;;20.93;10.87;;;4.00;63.70;;;;;;5084451;28;20193;-76
2022/01/27 01:56:06;;;;;;;23.60;11.37;;;4.00;63.70;;;;;;5080959;28;20598;-76
2022/01/27 01:58:34;;;;;;;24.83;11.90;;;4.00;63.70;;;;;;5075461;28;20196;-76
2022/01/27 02:01:04;;;;;;;23.10;10.23;;;4.10;63.80;;;;;;5082941;28;20271;-76
2022/01/27 02:03:32;;;;;;;19.30;9.83;;;4.10;63.70;;;;;;5076120;28;20198;-76
2022/01/27 02:06:00;;;;;;;24.77;10.53;;;4.20;63.70;;;;;;5080004;28;20274;-77
2022/01/27 02:08:46;;;;;;;20.90;11.00;;;4.20;63.60;;;;;;5078030;28;20201;-76
2022/01/27 02:19:33;;;;;;;22.03;10.90;;;4.40;63.30;;;;;;5084381;28;20648;-77
2022/01/27 02:22:06;;;;;;;21.00;10.20;;;4.40;63.30;;;;;;5070212;28;20947;-77
2022/01/27 02:24:36;;;;;;;24.00;10.57;;;4.40;63.10;;;;;;5061402;28;20199;-76
2022/01/27 02:27:06;;;;;;;24.43;9.77;;;4.40;63.10;;;;;;5064085;28;20188;-77
2022/01/27 02:29:34;;;;;;;18.27;9.93;;;4.50;64.00;;;;;;5059623;28;20190;-77
2022/01/27 02:32:03;;;;;;;16.50;8.80;;;4.40;63.10;;;;;;5065882;28;20290;-77
2022/01/27 02:34:31;;;;;;;16.50;8.53;;;4.40;63.10;;;;;;5057104;28;20365;-77
2022/01/27 02:36:59;;;;;;;17.90;9.23;;;4.40;63.10;;;;;;5064654;28;20198;-77
2022/01/27 02:39:29;;;;;;;24.70;10.10;;;4.40;63.00;;;;;;5067356;28;20195;-77
2022/01/27 02:42:01;;;;;;;22.80;9.70;;;4.50;63.10;;;;;;5077915;28;20192;-77
2022/01/27 02:44:38;;;;;;;17.30;9.77;;;4.50;63.00;;;;;;5066802;28;20230;-76
2022/01/27 02:47:06;;;;;;;20.57;10.03;;;4.50;63.10;;;;;;5063771;28;20183;-77
2022/01/27 02:49:35;;;;;;;16.20;8.90;;;4.50;63.00;;;;;;5066160;28;20196;-77
2022/01/27 02:52:04;;;;;;;20.10;9.13;;;4.50;62.90;;;;;;5072927;28;20214;-77
2022/01/27 02:54:33;;;;;;;24.43;9.40;;;4.50;63.00;;;;;;5065166;28;20198;-76
2022/01/27 02:57:21;;;;;;;17.90;9.43;;;4.50;63.00;;;;;;5062357;28;20225;-77
2022/01/27 02:59:50;;;;;;;19.03;9.20;;;4.50;63.00;;;;;;5068006;28;20198;-76
2022/01/27 03:02:18;;;;;;;18.63;9.20;;;4.50;63.10;;;;;;5064610;28;20193;-76
2022/01/27 03:04:47;;;;;;;18.17;9.30;;;4.50;63.10;;;;;;5066691;28;20224;-77
2022/01/27 03:07:16;;;;;;;19.33;9.00;;;4.50;63.20;;;;;;5062773;28;20201;-77
2022/01/27 03:09:45;;;;;;;18.47;9.17;;;4.50;63.30;;;;;;5067816;28;20222;-77
2022/01/27 03:12:16;;;;;;;20.50;9.20;;;4.40;63.30;;;;;;5063961;28;20216;-77
2022/01/27 03:14:44;;;;;;;19.53;9.43;;;4.40;63.80;;;;;;5065421;28;20197;-77
2022/01/27 03:17:13;;;;;;;16.87;8.63;;;4.40;63.50;;;;;;5062329;28;20558;-76
2022/01/27 03:19:41;;;;;;;17.73;7.77;;;4.30;63.70;;;;;;5064010;28;20565;-77
2022/01/27 03:22:11;;;;;;;17.10;8.47;;;4.30;63.60;;;;;;5064844;28;20201;-77
2022/01/27 03:24:39;;;;;;;19.13;8.93;;;4.30;63.70;;;;;;5076122;28;20289;-77
2022/01/27 03:27:16;;;;;;;17.70;9.00;;;4.30;63.80;;;;;;5070333;28;20198;-77
2022/01/27 03:29:45;;;;;;;19.73;9.17;;;4.30;63.80;;;;;;5064487;28;20223;-77
2022/01/27 03:32:13;;;;;;;20.17;8.50;;;4.30;64.00;;;;;;5062390;28;20233;-77
2022/01/27 03:34:42;;;;;;;20.50;9.13;;;4.30;64.10;;;;;;5062339;28;20191;-77
2022/01/27 03:37:10;;;;;;;17.97;8.77;;;4.30;64.40;;;;;;5063545;28;20287;-77
2022/01/27 03:39:40;;;;;;;18.43;8.90;;;4.20;64.70;;;;;;5071453;28;20199;-76
2022/01/27 03:42:10;;;;;;;19.53;8.53;;;4.20;64.50;;;;;;5064972;28;20223;-77
2022/01/27 03:44:39;;;;;;;17.07;8.77;;;4.20;64.60;;;;;;5058392;28;20193;-77
2022/01/27 03:47:07;;;;;;;15.77;8.30;;;4.20;64.70;;;;;;5075266;28;20795;-77
2022/01/27 03:49:36;;;;;;;24.80;9.13;;;4.20;64.60;;;;;;5065694;28;20703;-77
2022/01/27 03:52:05;;;;;;;20.57;9.13;;;4.20;64.60;;;;;;5066075;28;20214;-77
2022/01/27 03:54:33;;;;;;;20.47;8.77;;;4.20;64.60;;;;;;5059369;28;20853;-76
2022/01/27 03:57:02;;;;;;;19.60;10.18;;;4.20;64.60;;;;;;5063418;28;21053;-77
2022/01/27 03:59:32;;;;;;;18.30;9.43;;;4.20;64.90;;;;;;5060624;28;20200;-76
2022/01/27 04:02:04;;;;;;;15.67;8.83;;;4.20;65.70;;;;;;5062877;28;20208;-77
2022/01/27 04:04:32;;;;;;;16.80;8.60;;;4.30;64.90;;;;;;5063577;28;20642;-77
2022/01/27 04:07:03;;;;;;;24.30;10.20;;;4.30;64.80;;;;;;5058008;28;20204;-76
2022/01/27 04:09:31;;;;;;;18.47;8.97;;;4.30;64.70;;;;;;5066527;28;20874;-77
2022/01/27 04:12:00;;;;;;;22.30;10.30;;;4.30;64.90;;;;;;5067650;28;20294;-77
2022/01/27 04:14:28;;;;;;;20.70;9.90;;;4.30;65.00;;;;;;5063932;28;20199;-78
2022/01/27 04:16:58;;;;;;;21.20;9.70;;;4.30;64.80;;;;;;5064071;28;20740;-76
2022/01/27 04:19:26;;;;;;;22.00;10.40;;;4.30;65.00;;;;;;5061665;28;20298;-77
2022/01/27 04:21:54;;;;;;;23.27;10.30;;;4.30;65.00;;;;;;5063091;28;20200;-77
2022/01/27 04:24:22;;;;;;;22.77;10.03;;;4.30;65.20;;;;;;5062487;28;20245;-78
2022/01/27 04:26:59;;;;;;;21.07;9.90;;;4.20;65.00;;;;;;5063176;28;20187;-77
2022/01/27 04:29:28;;;;;;;19.63;9.77;;;4.30;65.00;;;;;;5058164;28;20194;-77
2022/01/27 04:32:00;;;;;;;19.07;9.33;;;4.30;65.10;;;;;;5061815;28;20236;-77
2022/01/27 04:34:31;;;;;;;22.13;9.30;;;4.30;65.00;;;;;;5064208;28;20214;-77
2022/01/27 04:36:59;;;;;;;24.13;10.37;;;4.30;65.00;;;;;;5063032;28;20195;-77
2022/01/27 04:39:33;;;;;;;23.60;10.13;;;4.40;65.10;;;;;;5077823;28;20602;-77
2022/01/27 04:42:07;;;;;;;18.43;9.37;;;4.40;65.10;;;;;;5063213;28;20180;-77
2022/01/27 04:44:47;;;;;;;20.97;9.70;;;4.40;65.30;;;;;;5062831;28;20185;-77
2022/01/27 04:47:23;;;;;;;25.23;11.23;;;4.30;65.20;;;;;;5069431;28;20186;-77
2022/01/27 04:49:51;;;;;;;23.47;10.97;;;4.30;65.50;;;;;;5071118;28;20197;-77
2022/01/27 04:52:20;;;;;;;26.10;10.87;;;4.20;65.90;;;;;;5060469;28;20219;-76
2022/01/27 04:54:57;;;;;;;22.00;10.50;;;4.20;65.90;;;;;;5055774;28;20285;-76
2022/01/27 04:57:27;;;;;;;23.23;10.53;;;4.10;65.70;;;;;;5064006;28;20191;-77
2022/01/27 04:59:55;;;;;;;22.63;10.73;;;4.10;65.80;;;;;;5060271;28;20191;-77
2022/01/27 05:02:33;;;;;;;20.90;11.70;;;4.10;65.90;;;;;;5067868;28;20214;-77
2022/01/27 05:05:02;;;;;;;22.80;10.23;;;4.10;65.90;;;;;;5058534;28;20194;-77
2022/01/27 05:07:55;;;;;;;22.40;10.40;;;4.00;66.00;;;;;;5074354;28;20655;-76
2022/01/27 05:10:27;;;;;;;21.57;10.77;;;4.00;66.10;;;;;;5065964;28;20214;-77
2022/01/27 05:13:02;;;;;;;30.08;13.00;;;4.00;66.20;;;;;;5065353;28;20444;-76
2022/01/27 05:15:30;;;;;;;25.23;11.97;;;4.00;66.80;;;;;;5062475;28;20199;-77
2022/01/27 05:18:00;;;;;;;22.23;11.70;;;4.00;66.90;;;;;;5062754;28;20213;-76
2022/01/27 05:20:28;;;;;;;23.77;11.77;;;4.00;66.80;;;;;;5063092;28;20555;-76
2022/01/27 05:22:57;;;;;;;19.27;10.47;;;4.00;66.70;;;;;;5063843;28;20262;-77
2022/01/27 05:25:25;;;;;;;21.90;10.80;;;4.00;66.60;;;;;;5062335;28;20191;-77
2022/01/27 05:27:53;;;;;;;26.67;11.70;;;4.00;66.60;;;;;;5063107;28;20776;-77
2022/01/27 05:30:25;;;;;;;24.40;11.70;;;4.00;66.60;;;;;;5062262;28;20194;-76
2022/01/27 05:32:53;;;;;;;27.77;11.83;;;4.00;66.80;;;;;;5063818;28;20838;-77
2022/01/27 05:35:23;;;;;;;27.70;12.17;;;4.00;67.00;;;;;;5063185;28;20191;-76
2022/01/27 05:37:51;;;;;;;27.23;13.07;;;4.00;67.40;;;;;;5062421;28;20245;-76
2022/01/27 05:40:20;;;;;;;23.53;12.47;;;3.90;67.40;;;;;;5072894;28;20190;-77
2022/01/27 05:42:48;;;;;;;26.60;12.07;;;3.90;67.40;;;;;;5067709;28;20187;-76
2022/01/27 05:45:16;;;;;;;27.17;13.10;;;3.90;67.50;;;;;;5064287;28;20596;-76
2022/01/27 05:47:47;;;;;;;27.13;12.53;;;3.80;67.40;;;;;;5063009;28;20191;-77
2022/01/27 05:50:15;;;;;;;30.10;13.10;;;3.80;67.70;;;;;;5059813;28;20191;-77
2022/01/27 05:52:45;;;;;;;29.20;13.93;;;3.80;68.00;;;;;;5074939;28;20321;-77
2022/01/27 05:55:13;;;;;;;24.73;12.20;;;3.70;68.00;;;;;;5072491;28;20182;-77
2022/01/27 05:57:42;;;;;;;28.37;12.60;;;3.70;68.00;;;;;;5079348;28;20199;-77
2022/01/27 06:00:11;;;;;;;24.10;11.13;;;3.70;68.20;;;;;;5080700;28;20191;-77
2022/01/27 06:02:40;;;;;;;32.53;13.87;;;3.70;68.30;;;;;;5066612;28;20193;-76
2022/01/27 06:05:09;;;;;;;31.17;12.37;;;3.60;68.30;;;;;;5065244;28;20273;-77
2022/01/27 06:07:37;;;;;;;31.60;14.93;;;3.60;68.60;;;;;;5066063;28;20441;-77
2022/01/27 06:10:08;;;;;;;27.67;13.17;;;3.50;68.90;;;;;;5065599;28;20218;-77
2022/01/27 06:12:45;;;;;;;24.73;11.93;;;3.50;69.10;;;;;;5066212;28;20271;-77
2022/01/27 06:15:14;;;;;;;28.53;12.20;;;3.50;68.90;;;;;;5073528;28;20281;-77
2022/01/27 06:17:43;;;;;;;26.60;12.07;;;3.50;69.10;;;;;;5074035;28;20436;-77
2022/01/27 06:20:12;;;;;;;24.30;11.93;;;3.50;69.20;;;;;;5075566;28;20182;-77
2022/01/27 06:22:41;;;;;;;33.73;12.93;;;3.50;69.30;;;;;;5068005;28;20277;-77
2022/01/27 06:25:11;;;;;;;29.47;13.40;;;3.50;69.40;;;;;;5073096;28;20189;-77
2022/01/27 06:27:40;;;;;;;28.10;13.07;;;3.50;69.70;;;;;;5067414;28;20185;-77
2022/01/27 06:30:11;;;;;;;35.03;16.00;;;3.50;69.50;;;;;;5054770;28;20526;-77
2022/01/27 06:32:39;;;;;;;31.80;14.20;;;3.50;69.70;;;;;;5064817;28;20217;-77
2022/01/27 06:35:08;;;;;;;33.43;14.03;;;3.50;69.80;;;;;;5065640;28;20762;-76
2022/01/27 06:37:37;;;;;;;34.60;14.10;;;3.50;69.60;;;;;;5065983;28;20190;-77
2022/01/27 06:40:10;;;;;;;31.90;14.30;;;3.60;69.60;;;;;;5066035;28;20223;-77
2022/01/27 06:42:39;;;;;;;41.03;17.45;;;3.60;69.70;;;;;;5063090;28;20444;-77
2022/01/27 06:45:09;;;;;;;28.43;14.63;;;3.60;70.00;;;;;;5065511;28;20227;-78
2022/01/27 06:47:37;;;;;;;32.90;14.00;;;3.60;70.00;;;;;;5065971;28;20284;-77
2022/01/27 06:50:07;;;;;;;37.07;16.13;;;3.60;69.80;;;;;;5065843;28;20205;-78
2022/01/27 06:52:35;;;;;;;31.17;13.80;;;3.60;70.00;;;;;;5065723;28;20277;-77
2022/01/27 06:55:05;;;;;;;28.37;13.70;;;3.70;69.90;;;;;;5065731;28;20184;-77
2022/01/27 06:57:36;;;;;;;37.37;13.40;;;3.60;70.10;;;;;;5066237;28;20289;-77
2022/01/27 07:00:09;;;;;;;31.00;14.37;;;3.70;70.10;;;;;;5064382;28;20880;-78
2022/01/27 07:02:37;;;;;;;33.90;14.00;;;3.70;69.90;;;;;;5079416;28;20620;-78
2022/01/27 07:05:06;;;;;;;27.97;12.50;;;3.60;69.90;;;;;;5072058;28;20190;-77
2022/01/27 07:07:34;;;;;;;30.40;13.47;;;3.70;69.90;;;;;;5066128;28;20239;-77
2022/01/27 07:10:03;;;;;;;29.30;13.48;;;3.60;70.00;;;;;;5065001;28;20809;-76
2022/01/27 07:12:31;;;;;;;30.60;13.17;;;3.70;69.90;;;;;;5064110;28;20759;-78
2022/01/27 07:14:59;;;;;;;28.17;13.20;;;3.70;70.00;;;;;;5068785;28;20228;-77
2022/01/27 07:17:29;;;;;;;32.93;13.67;;;3.60;70.00;;;;;;5071502;28;20190;-77
2022/01/27 07:20:00;;;;;;;29.63;14.90;;;3.70;70.00;;;;;;5066254;28;20466;-77
2022/01/27 07:22:28;;;;;;;33.63;14.20;;;3.70;70.00;;;;;;5063682;28;20188;-77
2022/01/27 07:24:56;;;;;;;31.87;14.43;;;3.70;70.00;;;;;;5064991;28;20215;-77
2022/01/27 07:27:25;;;;;;;36.72;15.35;;;3.70;70.20;;;;;;5081311;28;20433;-77
2022/01/27 07:29:53;;;;;;;33.40;13.97;;;3.70;70.10;;;;;;5065233;28;20199;-78
2022/01/27 07:32:21;;;;;;;31.50;13.17;;;3.80;70.20;;;;;;5063834;28;20657;-77
2022/01/27 07:34:52;;;;;;;33.83;13.93;;;3.80;70.20;;;;;;5063157;28;20779;-76
2022/01/27 07:37:21;;;;;;;36.17;13.30;;;3.80;70.00;;;;;;5061809;28;20187;-77
2022/01/27 07:39:49;;;;;;;34.40;14.77;;;3.90;70.00;;;;;;5064711;28;20198;-77
2022/01/27 07:42:17;;;;;;;33.90;13.43;;;3.90;70.10;;;;;;5076663;28;20201;-76
2022/01/27 07:44:45;;;;;;;34.27;14.13;;;3.90;69.90;;;;;;5081709;28;20240;-78
2022/01/27 07:47:14;;;;;;;37.60;13.13;;;3.90;69.90;;;;;;5064926;28;20219;-76
2022/01/27 07:49:42;;;;;;;30.97;13.47;;;4.00;70.00;;;;;;5068776;28;20199;-76
2022/01/27 07:52:13;;;;;;;30.87;14.17;;;4.00;69.80;;;;;;5066304;28;20190;-77
2022/01/27 07:54:42;;;;;;;32.50;13.87;;;4.10;69.80;;;;;;5073054;28;20221;-74
2022/01/27 07:57:10;;;;;;;29.33;13.83;;;4.10;69.70;;;;;;5080294;28;20191;-75
2022/01/27 07:59:38;;;;;;;32.20;14.73;;;4.20;69.60;;;;;;5080389;28;20666;-75
2022/01/27 08:02:06;;;;;;;34.77;15.13;;;4.20;69.40;;;;;;5075420;28;20192;-74
2022/01/27 08:04:35;;;;;;;34.97;15.00;;;4.20;69.30;;;;;;5084018;28;20209;-74
2022/01/27 08:07:04;;;;;;;32.77;13.87;;;4.30;69.30;;;;;;5081442;28;20547;-75
2022/01/27 08:09:34;;;;;;;35.43;14.27;;;4.30;69.30;;;;;;5069380;28;20231;-75
2022/01/27 08:12:03;;;;;;;29.43;13.90;;;4.30;69.00;;;;;;5054461;28;20204;-76
2022/01/27 08:14:31;;;;;;;36.10;14.97;;;4.40;69.10;;;;;;5063170;28;20224;-75
2022/01/27 08:17:00;;;;;;;35.40;13.43;;;4.40;69.10;;;;;;5080966;28;20193;-75
2022/01/27 08:19:28;;;;;;;31.50;14.07;;;4.40;69.00;;;;;;5069406;28;20192;-77
2022/01/27 08:21:56;;;;;;;30.93;14.13;;;4.40;68.80;;;;;;5081384;28;20196;-75
2022/01/27 08:24:25;;;;;;;32.77;14.07;;;4.40;68.80;;;;;;5075244;28;20869;-76
2022/01/27 08:27:01;;;;;;;31.23;14.23;;;4.40;68.70;;;;;;5068552;28;20188;-76
2022/01/27 08:29:34;;;;;;;30.17;13.87;;;4.50;68.70;;;;;;5064300;28;20189;-76
2022/01/27 08:32:34;;;;;;;31.87;15.70;;;4.50;68.70;;;;;;5069863;28;20533;-77
2022/01/27 08:35:02;;;;;;;32.40;14.90;;;4.60;68.90;;;;;;5078426;28;20463;-78
2022/01/27 08:37:31;;;;;;;29.30;12.77;;;4.60;69.00;;;;;;5084007;28;20200;-77
2022/01/27 08:40:00;;;;;;;29.43;13.27;;;4.70;68.90;;;;;;5072911;28;20283;-77
2022/01/27 08:42:50;;;;;;;26.40;13.00;;;4.70;68.80;;;;;;5063301;28;20194;-77
2022/01/27 08:45:20;;;;;;;25.20;12.80;;;4.80;68.50;;;;;;5073193;28;20186;-77
2022/01/27 08:47:50;;;;;;;27.57;12.47;;;4.90;68.30;;;;;;5078112;28;20647;-78
2022/01/27 08:50:20;;;;;;;28.53;11.73;;;5.00;69.00;;;;;;5069199;28;20202;-77
2022/01/27 08:52:49;;;;;;;23.93;12.00;;;5.00;67.80;;;;;;5063889;28;20205;-77
2022/01/27 08:55:20;;;;;;;24.10;12.73;;;5.00;67.60;;;;;;5044422;28;20229;-78
2022/01/27 08:57:50;;;;;;;29.13;13.50;;;5.00;67.70;;;;;;5043970;28;20187;-77
2022/01/27 09:00:20;;;;;;;27.07;13.00;;;5.00;67.90;;;;;;5066600;28;20612;-78
2022/01/27 09:02:52;;;;;;;24.47;13.27;;;5.10;67.90;;;;;;5071058;28;20216;-78
2022/01/27 09:05:20;;;;;;;30.23;14.43;;;5.10;67.70;;;;;;5082729;28;20284;-78
2022/01/27 09:07:50;;;;;;;30.45;14.95;;;5.10;67.70;;;;;;5084053;28;20422;-78
2022/01/27 09:10:19;;;;;;;30.67;13.67;;;5.10;68.00;;;;;;5083087;28;20228;-78
2022/01/27 09:12:49;;;;;;;30.40;14.07;;;5.20;67.90;;;;;;5081942;28;20258;-78
2022/01/27 09:15:17;;;;;;;28.20;12.63;;;5.30;68.00;;;;;;5082631;28;20610;-79
2022/01/27 09:17:46;;;;;;;31.90;13.87;;;5.40;67.90;;;;;;5083890;28;20190;-78
2022/01/27 09:20:16;;;;;;;25.67;12.80;;;5.50;67.70;;;;;;5084426;28;20205;-77
2022/01/27 09:22:44;;;;;;;26.33;13.30;;;5.60;67.50;;;;;;5076542;28;20609;-78
2022/01/27 09:25:17;;;;;;;26.83;12.63;;;5.70;67.40;;;;;;5083606;28;20205;-78
2022/01/27 09:27:46;;;;;;;26.43;12.70;;;5.70;66.90;;;;;;5084440;28;20198;-77
2022/01/27 09:30:20;;;;;;;24.40;12.77;;;5.80;66.80;;;;;;5083705;28;20429;-77
2022/01/27 09:32:49;;;;;;;24.13;12.10;;;5.90;66.70;;;;;;5070110;28;20240;-77
2022/01/27 09:35:18;;;;;;;27.57;12.37;;;6.00;66.60;;;;;;5068287;28;20571;-78
2022/01/27 09:37:46;;;;;;;27.27;12.50;;;6.00;66.30;;;;;;5067884;28;20194;-78
2022/01/27 09:40:16;;;;;;;27.47;13.60;;;6.10;66.10;;;;;;5067808;28;20201;-77
2022/01/27 09:42:50;;;;;;;30.92;14.02;;;6.20;66.00;;;;;;5066097;28;20435;-78
2022/01/27 09:45:21;;;;;;;26.67;12.93;;;6.20;66.40;;;;;;5071492;28;20187;-79
2022/01/27 09:47:55;;;;;;;28.80;12.50;;;6.30;65.90;;;;;;5072437;28;20188;-79
2022/01/27 09:50:36;;;;;;;30.60;13.07;;;6.30;65.90;;;;;;5071353;28;20190;-81
2022/01/27 09:53:05;;;;;;;23.77;10.90;;;6.40;65.80;;;;;;5070928;28;20202;-79
2022/01/27 09:55:33;;;;;;;24.20;12.27;;;6.40;65.70;;;;;;5059853;28;20226;-79
2022/01/27 09:58:06;;;;;;;29.90;11.70;;;6.60;65.70;;;;;;5060940;28;20224;-78
2022/01/27 10:00:36;;;;;;;22.57;11.77;;;6.60;65.60;;;;;;5068749;28;20616;-79
2022/01/27 10:03:08;;;;;;;26.37;12.30;;;6.80;65.70;;;;;;5066621;28;20556;-79
2022/01/27 10:05:38;;;;;;;24.13;12.48;;;6.80;65.40;;;;;;5068425;28;20463;-79
2022/01/27 10:08:10;;;;;;;22.87;11.93;;;6.90;65.30;;;;;;5068544;28;20221;-78
2022/01/27 10:10:41;;;;;;;29.27;13.73;;;7.10;65.30;;;;;;5063711;28;20221;-78
2022/01/27 10:13:11;;;;;;;22.50;12.40;;;7.20;65.50;;;;;;5064888;28;20239;-78
2022/01/27 10:15:47;;;;;;;19.23;9.57;;;7.30;65.60;;;;;;5048488;28;20884;-78
2022/01/27 10:18:17;;;;;;;33.33;11.88;;;7.50;64.30;;;;;;5062409;28;20616;-78
2022/01/27 10:20:51;;;;;;;20.57;10.57;;;7.60;64.60;;;;;;5064977;28;20196;-77
2022/01/27 10:23:22;;;;;;;19.73;10.53;;;7.70;63.70;;;;;;5072350;28;20196;-77
2022/01/27 10:25:55;;;;;;;22.03;10.60;;;7.90;63.30;;;;;;5080257;28;20186;-77
2022/01/27 10:28:42;;;;;;;17.50;9.73;;;8.10;63.40;;;;;;5074182;28;20195;-78
2022/01/27 10:31:19;;;;;;;16.80;9.10;;;8.20;63.00;;;;;;5078210;28;20185;-76
2022/01/27 10:33:52;;;;;;;19.27;8.53;;;8.40;62.10;;;;;;5061559;28;20201;-76
2022/01/27 10:36:24;;;;;;;19.53;7.63;;;8.60;61.50;;;;;;5074954;28;20819;-76
2022/01/27 10:38:55;;;;;;;17.43;7.87;;;8.70;61.00;;;;;;5069210;28;20201;-77
2022/01/27 10:41:24;;;;;;;16.90;8.37;;;8.80;61.30;;;;;;5076241;28;20190;-76
2022/01/27 10:44:06;;;;;;;19.13;7.83;;;9.00;60.20;;;;;;5070057;28;20195;-77
2022/01/27 10:46:39;;;;;;;14.73;7.93;;;9.10;60.20;;;;;;5072252;28;20885;-76
2022/01/27 10:49:12;;;;;;;14.27;6.93;;;9.20;59.80;;;;;;5071102;28;20541;-76
2022/01/27 10:51:46;;;;;;;15.53;7.53;;;9.30;59.30;;;;;;5074157;28;20737;-77
2022/01/27 10:54:22;;;;;;;14.00;6.43;;;9.30;59.00;;;;;;5075288;28;20181;-77
2022/01/27 10:56:51;;;;;;;19.67;8.57;;;9.30;58.90;;;;;;5075643;28;20272;-77
2022/01/27 10:59:20;;;;;;;16.77;7.63;;;9.40;59.00;;;;;;5070574;28;20198;-77
2022/01/27 11:01:52;;;;;;;19.63;6.90;;;9.50;58.80;;;;;;5077041;28;20649;-77
2022/01/27 11:04:32;;;;;;;21.13;8.33;;;9.50;58.40;;;;;;5073696;28;20190;-77
2022/01/27 11:07:02;;;;;;;17.30;8.23;;;9.60;58.40;;;;;;5073250;28;20180;-77
2022/01/27 11:09:34;;;;;;;14.60;7.80;;;9.60;59.00;;;;;;5077006;28;20239;-78
2022/01/27 11:12:07;;;;;;;14.80;7.57;;;9.70;58.80;;;;;;5081152;28;20196;-77
2022/01/27 11:14:37;;;;;;;13.33;6.90;;;9.70;58.50;;;;;;5067404;28;20182;-76
2022/01/27 11:17:09;;;;;;;12.23;6.83;;;9.80;58.00;;;;;;5077169;28;20244;-79
2022/01/27 11:19:59;;;;;;;14.10;7.10;;;9.80;57.70;;;;;;5078207;28;20221;-78
2022/01/27 11:22:45;;;;;;;11.87;6.93;;;9.80;57.60;;;;;;5079551;28;20190;-78
2022/01/27 11:28:01;;;;;;;13.33;6.87;;;9.90;57.60;;;;;;5063230;28;20197;-79
2022/01/27 11:30:37;;;;;;;13.60;7.30;;;10.00;57.60;;;;;;5079519;28;20186;-82
2022/01/27 11:33:09;;;;;;;18.10;7.87;;;10.10;57.80;;;;;;5072366;28;20231;-79
2022/01/27 11:36:07;;;;;;;14.50;7.80;;;10.20;57.40;;;;;;5076680;28;20209;-79
2022/01/27 11:38:35;;;;;;;16.40;7.70;;;10.20;57.60;;;;;;5079463;28;20185;-79
2022/01/27 11:41:04;;;;;;;14.03;7.67;;;10.20;56.50;;;;;;5074430;28;20933;-77
2022/01/27 11:43:34;;;;;;;17.87;8.10;;;10.20;56.50;;;;;;5071384;28;20190;-79
2022/01/27 11:46:20;;;;;;;14.83;6.90;;;10.30;56.80;;;;;;5065249;28;20555;-79
2022/01/27 11:48:50;;;;;;;19.77;8.27;;;10.30;56.90;;;;;;5064241;28;20228;-79
2022/01/27 11:51:18;;;;;;;22.47;9.10;;;10.30;56.20;;;;;;5060321;28;20202;-80
2022/01/27 11:53:50;;;;;;;20.70;9.53;;;10.40;56.70;;;;;;5064744;28;20202;-80
2022/01/27 11:56:38;;;;;;;19.27;8.90;;;10.40;56.30;;;;;;5058243;28;20222;-80
2022/01/27 11:59:08;;;;;;;21.93;9.23;;;10.40;56.70;;;;;;5063833;28;20194;-78
2022/01/27 12:01:38;;;;;;;19.20;8.77;;;10.50;56.20;;;;;;5080288;28;20182;-79
2022/01/27 12:04:16;;;;;;;17.27;8.00;;;10.50;56.00;;;;;;5066675;28;20729;-79
2022/01/27 12:07:07;;;;;;;17.83;8.37;;;10.60;56.40;;;;;;5069095;28;20181;-77
2022/01/27 12:09:40;;;;;;;16.97;6.90;;;10.60;55.60;;;;;;5074967;28;20579;-77
2022/01/27 12:12:25;;;;;;;16.00;7.87;;;10.70;55.10;;;;;;5077594;28;20201;-79
2022/01/27 12:15:10;;;;;;;12.33;5.67;;;10.80;55.40;;;;;;5069032;28;20214;-78
2022/01/27 12:17:39;;;;;;;14.37;5.90;;;11.00;54.50;;;;;;5067524;28;20190;-78
2022/01/27 12:20:13;;;;;;;12.70;6.20;;;11.10;53.70;;;;;;5082976;28;20181;-80
2022/01/27 12:23:02;;;;;;;13.73;5.90;;;11.10;53.20;;;;;;5074408;28;20194;-77
2022/01/27 12:25:51;;;;;;;14.10;5.90;;;11.20;52.90;;;;;;5061773;28;20244;-77
2022/01/27 12:28:22;;;;;;;11.53;5.60;;;11.30;52.70;;;;;;5061583;28;20187;-78
2022/01/27 12:31:00;;;;;;;11.87;5.20;;;11.40;52.50;;;;;;5062528;28;20182;-77
2022/01/27 12:33:31;;;;;;;11.87;5.60;;;11.50;52.70;;;;;;5060061;28;20841;-78
2022/01/27 12:36:23;;;;;;;13.53;5.70;;;11.60;52.00;;;;;;5059228;28;20561;-79
2022/01/27 12:38:51;;;;;;;10.20;5.07;;;11.70;51.10;;;;;;5067935;28;20202;-79
2022/01/27 12:41:21;;;;;;;14.83;6.17;;;11.80;51.00;;;;;;5064270;28;20196;-78
2022/01/27 12:43:51;;;;;;;13.90;6.20;;;11.80;50.90;;;;;;5064083;28;20190;-78
2022/01/27 12:46:20;;;;;;;13.50;5.53;;;11.90;51.20;;;;;;5060242;28;20552;-80
2022/01/27 12:48:50;;;;;;;10.67;5.53;;;12.00;51.00;;;;;;5061250;28;20226;-77
2022/01/27 12:51:56;;;;;;;12.10;5.50;;;12.00;50.30;;;;;;5053930;28;20310;-77
2022/01/27 12:54:28;;;;;;;9.73;4.73;;;12.10;50.60;;;;;;5047377;28;20218;-77
2022/01/27 12:56:57;;;;;;;8.90;5.47;;;12.10;49.80;;;;;;5060904;28;20751;-77
2022/01/27 12:59:29;;;;;;;8.50;4.03;;;12.10;49.10;;;;;;5062865;28;20190;-77
2022/01/27 13:01:58;;;;;;;7.83;3.90;;;12.10;49.10;;;;;;5063676;28;20217;-77
2022/01/27 13:04:28;;;;;;;8.27;4.27;;;12.10;49.20;;;;;;5063438;28;20198;-77
2022/01/27 13:06:59;;;;;;;11.93;4.07;;;12.20;49.10;;;;;;5061508;28;20214;-78
2022/01/27 13:09:28;;;;;;;7.83;3.67;;;12.20;48.90;;;;;;5064794;28;20237;-78
2022/01/27 13:11:59;;;;;;;10.67;3.80;;;12.20;48.80;;;;;;5083137;28;20217;-78
2022/01/27 13:14:28;;;;;;;11.97;3.97;;;12.40;49.40;;;;;;5082709;28;20197;-77
2022/01/27 13:17:00;;;;;;;7.63;3.30;;;12.60;49.60;;;;;;5081427;28;20193;-77
2022/01/27 13:19:43;;;;;;;11.53;4.10;;;12.80;49.00;;;;;;5076739;28;20255;-76
2022/01/27 13:22:17;;;;;;;12.87;4.27;;;13.00;49.40;;;;;;5080412;28;20200;-76
2022/01/27 13:24:48;;;;;;;10.07;5.60;;;13.20;48.50;;;;;;5082585;28;20185;-78
2022/01/27 13:27:16;;;;;;;17.40;5.73;;;13.60;48.90;;;;;;5082215;28;20555;-77